Aérodrome :
LOGIN :

S'inscrire | Disclaimer

   EN    FR    IT 

 










Légende :    VFR   VFR Marginal   IFR   IFR Intensif   IFR Très Intensif
Visi : 
Plafond : 
>= 8 km
>= 3000ft
5 à 8 km
1000 à 3000 ft
1500m à 5 km
500 à 1000 ft
800 à 1500m
200 à 500 ft
< 800m
< 200 ft
Symboles :   Orages  Brouillard  Fortes neiges  Fortes précipitations  Vent > 20 kt
SIGMETs :   Divers  Orages  Givrage  Turbulence  Onde Orograph.  Cendres Volcan.







- Altitude de l'aérodrome : 1708 ft
- Code IATA : SJJ


LQSA - Sarajevo

DERNIER METAR :
  • 220400Z 33006KT 9999 BKN035 M00/M06 Q1014

METARs EXPIRÉS :
  • 220300Z 33006KT 9999 -SN BKN030 00/M04 Q1014
  • 220200Z 34006KT 8000 -SN BKN030 00/M04 Q1014

TAF TAF LQSA
Valide du 22 à 00h jusqu'au 23 à 00h UTC


212300Z 2200/2224 30008KT 7000 BKN030 TX02/2214Z TNM02/2206Z
PROB30
TEMPO 2200/2205 3000 -SN BR BKN013
PROB40
TEMPO 2205/2218 2500 BR
Pas de NOTAMs connus pour ce terrain.



MET'MAP, la Météo Aéronautique d'un coup d'oeil ! - Copyright ORBIFLY Décembre 2007 - Disclaimer

ORBIFLY MET'MAP TEAM :

Programmation & Développement : Alexandra Zaïnal
Conception & Développement : Baudouin d'Aumeries
Co-Programmation & Développement : Marc-Olivier Méhu
Soutien technique & logistique : Manuel Goepfert

Contact : metmap@orbifly.com




SOURCES & CREDITS :

   NOAA